HFM369 LPPR-SBGR
Flight info
| Callsign | HFM369 |
|---|---|
| Flight time | N/A |
| Altitude | 33000 |
| Route | MANIK DCT DIRMA DCT ASMAR DCT LUTAK/M083F340 DCT 34N020W 30N025W DCT ULTEM/N0486F360 DCT NANIK DCT JOBER/N0475F380 UN741 TERIN/N0470F400 UN741 DEVIR/N0467F390 DCT VUNOX |
| Aircraft | A333/H-SDFGHIRWYLB1/LB1D1 |
Departure
| Time | N/A |
|---|---|
| Airport | Francisco de Sá Carneiro Airport (LPPR) |
Arrival
| Time | 2026-05-08 07:18 |
|---|---|
| Airport | São Paulo/Guarulhos–Governor André Franco Montoro International Airport (SBGR) |
| Time | Latitude | Longitude | Altitude | Speed | Heading |
|---|---|---|---|---|---|
| 2026-05-08 06:57 | -21.72980 | -46.48564 | 32780 ft | 444 kts | 162° |
| 2026-05-08 06:57 | -21.75797 | -46.47267 | 32423 ft | 438 kts | 162° |
| 2026-05-08 06:57 | -21.78587 | -46.45986 | 31980 ft | 434 kts | 162° |
| 2026-05-08 06:58 | -21.81384 | -46.44832 | 31548 ft | 427 kts | 168° |
| 2026-05-08 06:58 | -21.84263 | -46.44090 | 31156 ft | 428 kts | 174° |
| 2026-05-08 06:58 | -21.87255 | -46.43552 | 30923 ft | 444 kts | 176° |
| 2026-05-08 06:58 | -21.90362 | -46.43042 | 30689 ft | 458 kts | 175° |
| 2026-05-08 06:59 | -21.93534 | -46.42527 | 30457 ft | 463 kts | 175° |
| 2026-05-08 06:59 | -21.96718 | -46.42009 | 30227 ft | 462 kts | 175° |
| 2026-05-08 06:59 | -21.99898 | -46.41490 | 29973 ft | 461 kts | 175° |
| 2026-05-08 06:59 | -22.03055 | -46.40975 | 29652 ft | 456 kts | 175° |
| 2026-05-08 07:00 | -22.06135 | -46.40472 | 29148 ft | 451 kts | 175° |
| 2026-05-08 07:00 | -22.09222 | -46.39968 | 28611 ft | 447 kts | 175° |
| 2026-05-08 07:00 | -22.12286 | -46.39468 | 28058 ft | 443 kts | 175° |
| 2026-05-08 07:00 | -22.15321 | -46.38973 | 27515 ft | 440 kts | 175° |
| 2026-05-08 07:01 | -22.18339 | -46.38482 | 26970 ft | 437 kts | 175° |
| 2026-05-08 07:01 | -22.21354 | -46.37992 | 26426 ft | 445 kts | 175° |
| 2026-05-08 07:01 | -22.24499 | -46.37485 | 25853 ft | 466 kts | 175° |
| 2026-05-08 07:01 | -22.27728 | -46.36957 | 25250 ft | 471 kts | 175° |
| 2026-05-08 07:02 | -22.30964 | -46.36422 | 24654 ft | 468 kts | 175° |
| 2026-05-08 07:02 | -22.34172 | -46.35892 | 24056 ft | 464 kts | 175° |
| 2026-05-08 07:02 | -22.37358 | -46.35368 | 23445 ft | 461 kts | 175° |
| 2026-05-08 07:02 | -22.40514 | -46.34850 | 22787 ft | 457 kts | 174° |
| 2026-05-08 07:03 | -22.43651 | -46.34335 | 22202 ft | 453 kts | 175° |
| 2026-05-08 07:03 | -22.46763 | -46.33825 | 21614 ft | 451 kts | 175° |
| 2026-05-08 07:03 | -22.49856 | -46.33320 | 21034 ft | 449 kts | 174° |
| 2026-05-08 07:03 | -22.52935 | -46.32817 | 20471 ft | 446 kts | 173° |
| 2026-05-08 07:04 | -22.56002 | -46.32314 | 19892 ft | 446 kts | 173° |
| 2026-05-08 07:04 | -22.59067 | -46.31812 | 19313 ft | 444 kts | 173° |
| 2026-05-08 07:04 | -22.62112 | -46.31312 | 18738 ft | 440 kts | 172° |
| 2026-05-08 07:04 | -22.65126 | -46.30817 | 18160 ft | 437 kts | 172° |
| 2026-05-08 07:05 | -22.68129 | -46.30324 | 17531 ft | 435 kts | 171° |
| 2026-05-08 07:05 | -22.71079 | -46.29839 | 16969 ft | 434 kts | 172° |
| 2026-05-08 07:05 | -22.74099 | -46.29343 | 16339 ft | 431 kts | 172° |
| 2026-05-08 07:05 | -22.77020 | -46.29071 | 15899 ft | 427 kts | 182° |
| 2026-05-08 07:06 | -22.79914 | -46.29734 | 15460 ft | 427 kts | 202° |
| 2026-05-08 07:06 | -22.82562 | -46.31176 | 15049 ft | 425 kts | 210° |
| 2026-05-08 07:06 | -22.85114 | -46.32780 | 14633 ft | 422 kts | 211° |
| 2026-05-08 07:06 | -22.87640 | -46.34386 | 14240 ft | 421 kts | 211° |
| 2026-05-08 07:07 | -22.90172 | -46.35986 | 13833 ft | 421 kts | 211° |
| 2026-05-08 07:07 | -22.92698 | -46.37567 | 13387 ft | 418 kts | 211° |
| 2026-05-08 07:07 | -22.95204 | -46.39130 | 12988 ft | 413 kts | 211° |
| 2026-05-08 07:07 | -22.97682 | -46.40673 | 12590 ft | 410 kts | 211° |
| 2026-05-08 07:08 | -23.00150 | -46.42208 | 12206 ft | 407 kts | 212° |
| 2026-05-08 07:08 | -23.02605 | -46.43736 | 11812 ft | 405 kts | 212° |
| 2026-05-08 07:08 | -23.05045 | -46.45253 | 11554 ft | 402 kts | 211° |
| 2026-05-08 07:08 | -23.07463 | -46.46758 | 11260 ft | 400 kts | 212° |
| 2026-05-08 07:09 | -23.09878 | -46.48260 | 10884 ft | 398 kts | 212° |
| 2026-05-08 07:09 | -23.12273 | -46.49749 | 10522 ft | 393 kts | 212° |
| 2026-05-08 07:09 | -23.14616 | -46.51208 | 10024 ft | 386 kts | 213° |
| 2026-05-08 07:09 | -23.16943 | -46.52661 | 9440 ft | 385 kts | 213° |
| 2026-05-08 07:10 | -23.19232 | -46.54085 | 9223 ft | 372 kts | 213° |
| 2026-05-08 07:10 | -23.21387 | -46.55483 | 9026 ft | 357 kts | 216° |
| 2026-05-08 07:10 | -23.23433 | -46.56917 | 8829 ft | 343 kts | 217° |
| 2026-05-08 07:10 | -23.25391 | -46.58311 | 8678 ft | 330 kts | 217° |
| 2026-05-08 07:11 | -23.27277 | -46.59656 | 8516 ft | 318 kts | 217° |
| 2026-05-08 07:11 | -23.29094 | -46.60949 | 8362 ft | 306 kts | 217° |
| 2026-05-08 07:11 | -23.30828 | -46.62175 | 8120 ft | 289 kts | 217° |
| 2026-05-08 07:11 | -23.32494 | -46.63352 | 7558 ft | 285 kts | 217° |
| 2026-05-08 07:12 | -23.34158 | -46.64535 | 6867 ft | 288 kts | 217° |
| 2026-05-08 07:12 | -23.35835 | -46.65730 | 6236 ft | 287 kts | 217° |
| 2026-05-08 07:12 | -23.37469 | -46.66888 | 5953 ft | 273 kts | 217° |
| 2026-05-08 07:12 | -23.38998 | -46.67961 | 5897 ft | 251 kts | 216° |
| 2026-05-08 07:13 | -23.40532 | -46.68729 | 5830 ft | 237 kts | 199° |
| 2026-05-08 07:13 | -23.42138 | -46.68869 | 5730 ft | 228 kts | 174° |
| 2026-05-08 07:13 | -23.43602 | -46.68358 | 5523 ft | 217 kts | 149° |
| 2026-05-08 07:13 | -23.44732 | -46.67349 | 5185 ft | 208 kts | 128° |
| 2026-05-08 07:14 | -23.45602 | -46.66077 | 4823 ft | 212 kts | 123° |
| 2026-05-08 07:14 | -23.46428 | -46.64735 | 4569 ft | 213 kts | 122° |
| 2026-05-08 07:14 | -23.47084 | -46.63317 | 4207 ft | 208 kts | 97° |
| 2026-05-08 07:14 | -23.47188 | -46.61790 | 4023 ft | 197 kts | 84° |
| 2026-05-08 07:15 | -23.46999 | -46.60331 | 4001 ft | 194 kts | 72° |
| 2026-05-08 07:15 | -23.46616 | -46.58923 | 4007 ft | 194 kts | 70° |
| 2026-05-08 07:15 | -23.46261 | -46.57560 | 3990 ft | 178 kts | 70° |
| 2026-05-08 07:15 | -23.45932 | -46.56303 | 3822 ft | 168 kts | 69° |
| 2026-05-08 07:16 | -23.45610 | -46.55107 | 3618 ft | 160 kts | 69° |
| 2026-05-08 07:16 | -23.45309 | -46.53991 | 3398 ft | 148 kts | 68° |
| 2026-05-08 07:16 | -23.45020 | -46.52923 | 3221 ft | 147 kts | 66° |
| 2026-05-08 07:16 | -23.44726 | -46.51840 | 3047 ft | 150 kts | 66° |
| 2026-05-08 07:17 | -23.44435 | -46.50759 | 2886 ft | 148 kts | 67° |
| 2026-05-08 07:17 | -23.44147 | -46.49672 | 2691 ft | 151 kts | 70° |
| 2026-05-08 07:17 | -23.43849 | -46.48578 | 2503 ft | 150 kts | 72° |
| 2026-05-08 07:17 | -23.43572 | -46.47555 | 2476 ft | 125 kts | 73° |
| 2026-05-08 07:18 | -23.43389 | -46.46883 | 2477 ft | 69 kts | 72° |
| 2026-05-08 07:18 | -23.43279 | -46.46481 | 2477 ft | 34 kts | 70° |
| 2026-05-08 07:18 | -23.43176 | -46.46315 | 2476 ft | 25 kts | 50° |
| 2026-05-08 07:18 | -23.43055 | -46.46186 | 2474 ft | 25 kts | 43° |
| 2026-05-08 07:19 | -23.42909 | -46.46149 | 2476 ft | 22 kts | 344° |
| 2026-05-08 07:19 | -23.42765 | -46.46192 | 2477 ft | 21 kts | 344° |
| 2026-05-08 07:19 | -23.42644 | -46.46246 | 2474 ft | 15 kts | 312° |
| 2026-05-08 07:19 | -23.42639 | -46.46366 | 2476 ft | 19 kts | 254° |
| 2026-05-08 07:20 | -23.42676 | -46.46510 | 2472 ft | 20 kts | 254° |
| 2026-05-08 07:20 | -23.42718 | -46.46666 | 2473 ft | 24 kts | 253° |
| 2026-05-08 07:20 | -23.42768 | -46.46843 | 2473 ft | 25 kts | 254° |
| 2026-05-08 07:20 | -23.42817 | -46.47026 | 2477 ft | 26 kts | 253° |
| 2026-05-08 07:21 | -23.42869 | -46.47221 | 2473 ft | 27 kts | 253° |
| 2026-05-08 07:21 | -23.42924 | -46.47415 | 2477 ft | 27 kts | 253° |
| 2026-05-08 07:21 | -23.42977 | -46.47614 | 2473 ft | 28 kts | 253° |
| 2026-05-08 07:21 | -23.43017 | -46.47778 | 2476 ft | 8 kts | 266° |
| 2026-05-08 07:22 | -23.42974 | -46.47822 | 2477 ft | 10 kts | 351° |
| 2026-05-08 07:22 | -23.42894 | -46.47836 | 2478 ft | 13 kts | 347° |
| 2026-05-08 07:22 | -23.42831 | -46.47872 | 2477 ft | 5 kts | 299° |
| 2026-05-08 07:22 | -23.42833 | -46.47915 | 2471 ft | 10 kts | 265° |
| 2026-05-08 07:23 | -23.42835 | -46.47937 | 2471 ft | 0 kts | 265° |